<?xml version="1.0" encoding="UTF-8" standalone="no" ?>
<gpx xmlns="http://www.topografix.com/GPX/1/1" xmlns:xsi="http://www.w3.org/2001/XMLSchema-instance" xsi:schemaLocation="http://www.topografix.com/GPX/1/1 http://www.topografix.com/GPX/1/1/gpx.xsd" version="1.1" creator="VisuGPX - https://www.visugpx.com">
  <metadata>
    <name>83 - M - MAZAUGUES</name>
    <desc><![CDATA[MAZAUGUES, le petit et le grand Gaudin, la glacière de Pivaut]]></desc>
  </metadata>
  <wpt lat="43.36069" lon="5.9143">
    <ele>423</ele>
    <name><![CDATA[]]></name>
    <type><![CDATA[GENERIC]]></type>
  </wpt>
  <wpt lat="43.36064" lon="5.91442">
    <ele>434</ele>
    <name><![CDATA[]]></name>
    <type><![CDATA[GENERIC]]></type>
  </wpt>
  <trk>
    <name><![CDATA[Randonnée du 19/02/2025 à 09:22]]></name>
    <trkseg>
      <trkpt lat="43.36064" lon="5.91442">
        <ele>434</ele>
        <time>2025-02-19T08:22:40.000Z</time>
      </trkpt>
      <trkpt lat="43.36066" lon="5.91442">
        <ele>430</ele>
        <time>2025-02-19T08:22:43.000Z</time>
      </trkpt>
      <trkpt lat="43.36073" lon="5.91417">
        <ele>427</ele>
        <time>2025-02-19T08:25:15.000Z</time>
      </trkpt>
      <trkpt lat="43.36087" lon="5.91393">
        <ele>426</ele>
        <time>2025-02-19T08:26:06.000Z</time>
      </trkpt>
      <trkpt lat="43.36101" lon="5.91368">
        <ele>428</ele>
        <time>2025-02-19T08:26:27.000Z</time>
      </trkpt>
      <trkpt lat="43.36106" lon="5.91338">
        <ele>428</ele>
        <time>2025-02-19T08:26:45.000Z</time>
      </trkpt>
      <trkpt lat="43.36105" lon="5.91303">
        <ele>429</ele>
        <time>2025-02-19T08:27:06.000Z</time>
      </trkpt>
      <trkpt lat="43.361" lon="5.91272">
        <ele>429</ele>
        <time>2025-02-19T08:27:27.000Z</time>
      </trkpt>
      <trkpt lat="43.361" lon="5.9124">
        <ele>430</ele>
        <time>2025-02-19T08:27:45.000Z</time>
      </trkpt>
      <trkpt lat="43.36101" lon="5.91207">
        <ele>430</ele>
        <time>2025-02-19T08:28:06.000Z</time>
      </trkpt>
      <trkpt lat="43.361" lon="5.91173">
        <ele>430</ele>
        <time>2025-02-19T08:28:27.000Z</time>
      </trkpt>
      <trkpt lat="43.36097" lon="5.9114">
        <ele>431</ele>
        <time>2025-02-19T08:28:45.000Z</time>
      </trkpt>
      <trkpt lat="43.36089" lon="5.91105">
        <ele>431</ele>
        <time>2025-02-19T08:29:06.000Z</time>
      </trkpt>
      <trkpt lat="43.36088" lon="5.91073">
        <ele>432</ele>
        <time>2025-02-19T08:29:24.000Z</time>
      </trkpt>
      <trkpt lat="43.36085" lon="5.91042">
        <ele>432</ele>
        <time>2025-02-19T08:29:42.000Z</time>
      </trkpt>
      <trkpt lat="43.36077" lon="5.91013">
        <ele>432</ele>
        <time>2025-02-19T08:30:03.000Z</time>
      </trkpt>
      <trkpt lat="43.36064" lon="5.90985">
        <ele>432</ele>
        <time>2025-02-19T08:30:24.000Z</time>
      </trkpt>
      <trkpt lat="43.36051" lon="5.90958">
        <ele>432</ele>
        <time>2025-02-19T08:30:45.000Z</time>
      </trkpt>
      <trkpt lat="43.36041" lon="5.90929">
        <ele>432</ele>
        <time>2025-02-19T08:31:03.000Z</time>
      </trkpt>
      <trkpt lat="43.3603" lon="5.909">
        <ele>432</ele>
        <time>2025-02-19T08:31:21.000Z</time>
      </trkpt>
      <trkpt lat="43.36017" lon="5.90869">
        <ele>431</ele>
        <time>2025-02-19T08:31:42.000Z</time>
      </trkpt>
      <trkpt lat="43.36005" lon="5.90841">
        <ele>431</ele>
        <time>2025-02-19T08:32:00.000Z</time>
      </trkpt>
      <trkpt lat="43.35993" lon="5.90813">
        <ele>430</ele>
        <time>2025-02-19T08:32:18.000Z</time>
      </trkpt>
      <trkpt lat="43.35981" lon="5.90785">
        <ele>430</ele>
        <time>2025-02-19T08:32:39.000Z</time>
      </trkpt>
      <trkpt lat="43.35968" lon="5.90757">
        <ele>430</ele>
        <time>2025-02-19T08:32:57.000Z</time>
      </trkpt>
      <trkpt lat="43.35965" lon="5.90726">
        <ele>430</ele>
        <time>2025-02-19T08:33:15.000Z</time>
      </trkpt>
      <trkpt lat="43.35967" lon="5.90692">
        <ele>431</ele>
        <time>2025-02-19T08:33:36.000Z</time>
      </trkpt>
      <trkpt lat="43.35974" lon="5.90661">
        <ele>431</ele>
        <time>2025-02-19T08:33:54.000Z</time>
      </trkpt>
      <trkpt lat="43.35978" lon="5.90629">
        <ele>432</ele>
        <time>2025-02-19T08:34:15.000Z</time>
      </trkpt>
      <trkpt lat="43.35976" lon="5.90595">
        <ele>433</ele>
        <time>2025-02-19T08:34:36.000Z</time>
      </trkpt>
      <trkpt lat="43.35981" lon="5.90565">
        <ele>434</ele>
        <time>2025-02-19T08:34:54.000Z</time>
      </trkpt>
      <trkpt lat="43.35984" lon="5.90534">
        <ele>435</ele>
        <time>2025-02-19T08:35:12.000Z</time>
      </trkpt>
      <trkpt lat="43.35984" lon="5.905">
        <ele>437</ele>
        <time>2025-02-19T08:35:33.000Z</time>
      </trkpt>
      <trkpt lat="43.35986" lon="5.90468">
        <ele>438</ele>
        <time>2025-02-19T08:35:54.000Z</time>
      </trkpt>
      <trkpt lat="43.35986" lon="5.90435">
        <ele>439</ele>
        <time>2025-02-19T08:36:15.000Z</time>
      </trkpt>
      <trkpt lat="43.35989" lon="5.90404">
        <ele>440</ele>
        <time>2025-02-19T08:36:36.000Z</time>
      </trkpt>
      <trkpt lat="43.35995" lon="5.90374">
        <ele>441</ele>
        <time>2025-02-19T08:36:57.000Z</time>
      </trkpt>
      <trkpt lat="43.35995" lon="5.90343">
        <ele>442</ele>
        <time>2025-02-19T08:37:18.000Z</time>
      </trkpt>
      <trkpt lat="43.35994" lon="5.9031">
        <ele>444</ele>
        <time>2025-02-19T08:37:39.000Z</time>
      </trkpt>
      <trkpt lat="43.35992" lon="5.90279">
        <ele>445</ele>
        <time>2025-02-19T08:37:57.000Z</time>
      </trkpt>
      <trkpt lat="43.35995" lon="5.90246">
        <ele>446</ele>
        <time>2025-02-19T08:38:18.000Z</time>
      </trkpt>
      <trkpt lat="43.36" lon="5.90213">
        <ele>447</ele>
        <time>2025-02-19T08:38:39.000Z</time>
      </trkpt>
      <trkpt lat="43.36005" lon="5.9018">
        <ele>448</ele>
        <time>2025-02-19T08:39:00.000Z</time>
      </trkpt>
      <trkpt lat="43.36014" lon="5.90152">
        <ele>448</ele>
        <time>2025-02-19T08:39:21.000Z</time>
      </trkpt>
      <trkpt lat="43.36023" lon="5.90123">
        <ele>449</ele>
        <time>2025-02-19T08:39:41.000Z</time>
      </trkpt>
      <trkpt lat="43.36027" lon="5.90089">
        <ele>450</ele>
        <time>2025-02-19T08:40:02.000Z</time>
      </trkpt>
      <trkpt lat="43.36028" lon="5.90056">
        <ele>451</ele>
        <time>2025-02-19T08:40:20.000Z</time>
      </trkpt>
      <trkpt lat="43.3603" lon="5.90025">
        <ele>453</ele>
        <time>2025-02-19T08:40:38.000Z</time>
      </trkpt>
      <trkpt lat="43.36033" lon="5.89994">
        <ele>454</ele>
        <time>2025-02-19T08:40:56.000Z</time>
      </trkpt>
      <trkpt lat="43.36038" lon="5.89963">
        <ele>455</ele>
        <time>2025-02-19T08:41:17.000Z</time>
      </trkpt>
      <trkpt lat="43.36037" lon="5.89931">
        <ele>456</ele>
        <time>2025-02-19T08:41:38.000Z</time>
      </trkpt>
      <trkpt lat="43.36042" lon="5.899">
        <ele>457</ele>
        <time>2025-02-19T08:41:56.000Z</time>
      </trkpt>
      <trkpt lat="43.36049" lon="5.89869">
        <ele>458</ele>
        <time>2025-02-19T08:42:17.000Z</time>
      </trkpt>
      <trkpt lat="43.36053" lon="5.89838">
        <ele>459</ele>
        <time>2025-02-19T08:42:35.000Z</time>
      </trkpt>
      <trkpt lat="43.36056" lon="5.89804">
        <ele>459</ele>
        <time>2025-02-19T08:42:56.000Z</time>
      </trkpt>
      <trkpt lat="43.36058" lon="5.89772">
        <ele>460</ele>
        <time>2025-02-19T08:43:14.000Z</time>
      </trkpt>
      <trkpt lat="43.36066" lon="5.89742">
        <ele>460</ele>
        <time>2025-02-19T08:43:32.000Z</time>
      </trkpt>
      <trkpt lat="43.36075" lon="5.89713">
        <ele>460</ele>
        <time>2025-02-19T08:43:50.000Z</time>
      </trkpt>
      <trkpt lat="43.36082" lon="5.89682">
        <ele>461</ele>
        <time>2025-02-19T08:44:11.000Z</time>
      </trkpt>
      <trkpt lat="43.36094" lon="5.89653">
        <ele>461</ele>
        <time>2025-02-19T08:44:29.000Z</time>
      </trkpt>
      <trkpt lat="43.36103" lon="5.89623">
        <ele>461</ele>
        <time>2025-02-19T08:46:42.000Z</time>
      </trkpt>
      <trkpt lat="43.3611" lon="5.89591">
        <ele>462</ele>
        <time>2025-02-19T08:47:06.000Z</time>
      </trkpt>
      <trkpt lat="43.36112" lon="5.8956">
        <ele>462</ele>
        <time>2025-02-19T08:47:27.000Z</time>
      </trkpt>
      <trkpt lat="43.36113" lon="5.89527">
        <ele>462</ele>
        <time>2025-02-19T08:47:48.000Z</time>
      </trkpt>
      <trkpt lat="43.36119" lon="5.89494">
        <ele>463</ele>
        <time>2025-02-19T08:48:15.000Z</time>
      </trkpt>
      <trkpt lat="43.36121" lon="5.89458">
        <ele>463</ele>
        <time>2025-02-19T08:48:39.000Z</time>
      </trkpt>
      <trkpt lat="43.36126" lon="5.89425">
        <ele>464</ele>
        <time>2025-02-19T08:49:03.000Z</time>
      </trkpt>
      <trkpt lat="43.36133" lon="5.89395">
        <ele>465</ele>
        <time>2025-02-19T08:49:24.000Z</time>
      </trkpt>
      <trkpt lat="43.3614" lon="5.89365">
        <ele>466</ele>
        <time>2025-02-19T08:49:42.000Z</time>
      </trkpt>
      <trkpt lat="43.36144" lon="5.89335">
        <ele>467</ele>
        <time>2025-02-19T08:50:00.000Z</time>
      </trkpt>
      <trkpt lat="43.36143" lon="5.89303">
        <ele>469</ele>
        <time>2025-02-19T08:50:21.000Z</time>
      </trkpt>
      <trkpt lat="43.36143" lon="5.89271">
        <ele>471</ele>
        <time>2025-02-19T08:50:42.000Z</time>
      </trkpt>
      <trkpt lat="43.36146" lon="5.89239">
        <ele>472</ele>
        <time>2025-02-19T08:51:03.000Z</time>
      </trkpt>
      <trkpt lat="43.36149" lon="5.89203">
        <ele>473</ele>
        <time>2025-02-19T08:51:27.000Z</time>
      </trkpt>
      <trkpt lat="43.36148" lon="5.89169">
        <ele>474</ele>
        <time>2025-02-19T08:51:48.000Z</time>
      </trkpt>
      <trkpt lat="43.36139" lon="5.89137">
        <ele>476</ele>
        <time>2025-02-19T08:52:09.000Z</time>
      </trkpt>
      <trkpt lat="43.36133" lon="5.89104">
        <ele>476</ele>
        <time>2025-02-19T08:52:30.000Z</time>
      </trkpt>
      <trkpt lat="43.36126" lon="5.89071">
        <ele>477</ele>
        <time>2025-02-19T08:52:51.000Z</time>
      </trkpt>
      <trkpt lat="43.36122" lon="5.89039">
        <ele>477</ele>
        <time>2025-02-19T08:53:12.000Z</time>
      </trkpt>
      <trkpt lat="43.36121" lon="5.89008">
        <ele>478</ele>
        <time>2025-02-19T08:53:30.000Z</time>
      </trkpt>
      <trkpt lat="43.36124" lon="5.88974">
        <ele>479</ele>
        <time>2025-02-19T08:53:51.000Z</time>
      </trkpt>
      <trkpt lat="43.36129" lon="5.8894">
        <ele>480</ele>
        <time>2025-02-19T08:54:12.000Z</time>
      </trkpt>
      <trkpt lat="43.36134" lon="5.88907">
        <ele>480</ele>
        <time>2025-02-19T08:54:30.000Z</time>
      </trkpt>
      <trkpt lat="43.36141" lon="5.88876">
        <ele>481</ele>
        <time>2025-02-19T08:54:48.000Z</time>
      </trkpt>
      <trkpt lat="43.36146" lon="5.88846">
        <ele>482</ele>
        <time>2025-02-19T08:55:09.000Z</time>
      </trkpt>
      <trkpt lat="43.36139" lon="5.88817">
        <ele>482</ele>
        <time>2025-02-19T08:55:27.000Z</time>
      </trkpt>
      <trkpt lat="43.36135" lon="5.88786">
        <ele>482</ele>
        <time>2025-02-19T08:55:45.000Z</time>
      </trkpt>
      <trkpt lat="43.36131" lon="5.88754">
        <ele>483</ele>
        <time>2025-02-19T08:56:03.000Z</time>
      </trkpt>
      <trkpt lat="43.36127" lon="5.8872">
        <ele>483</ele>
        <time>2025-02-19T08:56:21.000Z</time>
      </trkpt>
      <trkpt lat="43.36124" lon="5.88684">
        <ele>484</ele>
        <time>2025-02-19T08:56:42.000Z</time>
      </trkpt>
      <trkpt lat="43.36119" lon="5.88651">
        <ele>484</ele>
        <time>2025-02-19T08:57:03.000Z</time>
      </trkpt>
      <trkpt lat="43.36112" lon="5.88619">
        <ele>485</ele>
        <time>2025-02-19T08:57:24.000Z</time>
      </trkpt>
      <trkpt lat="43.36114" lon="5.88585">
        <ele>485</ele>
        <time>2025-02-19T08:57:42.000Z</time>
      </trkpt>
      <trkpt lat="43.36114" lon="5.88551">
        <ele>485</ele>
        <time>2025-02-19T08:58:03.000Z</time>
      </trkpt>
      <trkpt lat="43.36114" lon="5.88516">
        <ele>484</ele>
        <time>2025-02-19T08:58:21.000Z</time>
      </trkpt>
      <trkpt lat="43.36118" lon="5.88485">
        <ele>483</ele>
        <time>2025-02-19T08:58:39.000Z</time>
      </trkpt>
      <trkpt lat="43.36116" lon="5.88454">
        <ele>482</ele>
        <time>2025-02-19T08:59:03.000Z</time>
      </trkpt>
      <trkpt lat="43.36109" lon="5.88422">
        <ele>482</ele>
        <time>2025-02-19T09:04:54.000Z</time>
      </trkpt>
      <trkpt lat="43.36112" lon="5.88387">
        <ele>482</ele>
        <time>2025-02-19T09:05:15.000Z</time>
      </trkpt>
      <trkpt lat="43.36116" lon="5.88356">
        <ele>481</ele>
        <time>2025-02-19T09:05:33.000Z</time>
      </trkpt>
      <trkpt lat="43.36113" lon="5.88323">
        <ele>482</ele>
        <time>2025-02-19T09:05:52.000Z</time>
      </trkpt>
      <trkpt lat="43.36112" lon="5.88291">
        <ele>483</ele>
        <time>2025-02-19T09:06:10.000Z</time>
      </trkpt>
      <trkpt lat="43.36114" lon="5.88259">
        <ele>484</ele>
        <time>2025-02-19T09:06:28.000Z</time>
      </trkpt>
      <trkpt lat="43.36121" lon="5.88228">
        <ele>484</ele>
        <time>2025-02-19T09:06:49.000Z</time>
      </trkpt>
      <trkpt lat="43.36137" lon="5.88206">
        <ele>484</ele>
        <time>2025-02-19T09:07:16.000Z</time>
      </trkpt>
      <trkpt lat="43.36154" lon="5.88185">
        <ele>483</ele>
        <time>2025-02-19T09:07:40.000Z</time>
      </trkpt>
      <trkpt lat="43.36164" lon="5.88155">
        <ele>483</ele>
        <time>2025-02-19T09:08:01.000Z</time>
      </trkpt>
      <trkpt lat="43.3617" lon="5.88124">
        <ele>484</ele>
        <time>2025-02-19T09:08:25.000Z</time>
      </trkpt>
      <trkpt lat="43.36169" lon="5.88094">
        <ele>485</ele>
        <time>2025-02-19T09:08:46.000Z</time>
      </trkpt>
      <trkpt lat="43.3616" lon="5.88065">
        <ele>485</ele>
        <time>2025-02-19T09:09:07.000Z</time>
      </trkpt>
      <trkpt lat="43.36152" lon="5.88036">
        <ele>485</ele>
        <time>2025-02-19T09:09:28.000Z</time>
      </trkpt>
      <trkpt lat="43.36147" lon="5.88006">
        <ele>486</ele>
        <time>2025-02-19T09:09:46.000Z</time>
      </trkpt>
      <trkpt lat="43.36141" lon="5.87975">
        <ele>486</ele>
        <time>2025-02-19T09:10:07.000Z</time>
      </trkpt>
      <trkpt lat="43.36134" lon="5.87943">
        <ele>487</ele>
        <time>2025-02-19T09:10:28.000Z</time>
      </trkpt>
      <trkpt lat="43.36134" lon="5.8791">
        <ele>488</ele>
        <time>2025-02-19T09:10:49.000Z</time>
      </trkpt>
      <trkpt lat="43.36129" lon="5.87876">
        <ele>490</ele>
        <time>2025-02-19T09:11:13.000Z</time>
      </trkpt>
      <trkpt lat="43.36125" lon="5.87845">
        <ele>492</ele>
        <time>2025-02-19T09:11:34.000Z</time>
      </trkpt>
      <trkpt lat="43.36123" lon="5.87814">
        <ele>493</ele>
        <time>2025-02-19T09:11:55.000Z</time>
      </trkpt>
      <trkpt lat="43.36123" lon="5.87782">
        <ele>494</ele>
        <time>2025-02-19T09:12:13.000Z</time>
      </trkpt>
      <trkpt lat="43.36125" lon="5.87751">
        <ele>495</ele>
        <time>2025-02-19T09:12:34.000Z</time>
      </trkpt>
      <trkpt lat="43.36144" lon="5.87737">
        <ele>496</ele>
        <time>2025-02-19T09:13:04.000Z</time>
      </trkpt>
      <trkpt lat="43.36156" lon="5.87714">
        <ele>497</ele>
        <time>2025-02-19T09:13:40.000Z</time>
      </trkpt>
      <trkpt lat="43.36141" lon="5.87693">
        <ele>498</ele>
        <time>2025-02-19T09:14:34.000Z</time>
      </trkpt>
      <trkpt lat="43.36123" lon="5.87674">
        <ele>500</ele>
        <time>2025-02-19T09:15:25.000Z</time>
      </trkpt>
      <trkpt lat="43.36111" lon="5.87647">
        <ele>500</ele>
        <time>2025-02-19T09:15:49.000Z</time>
      </trkpt>
      <trkpt lat="43.36112" lon="5.87613">
        <ele>501</ele>
        <time>2025-02-19T09:16:10.000Z</time>
      </trkpt>
      <trkpt lat="43.36113" lon="5.87579">
        <ele>501</ele>
        <time>2025-02-19T09:16:28.000Z</time>
      </trkpt>
      <trkpt lat="43.36113" lon="5.87545">
        <ele>501</ele>
        <time>2025-02-19T09:16:46.000Z</time>
      </trkpt>
      <trkpt lat="43.36111" lon="5.87513">
        <ele>501</ele>
        <time>2025-02-19T09:17:07.000Z</time>
      </trkpt>
      <trkpt lat="43.36103" lon="5.87483">
        <ele>501</ele>
        <time>2025-02-19T09:17:28.000Z</time>
      </trkpt>
      <trkpt lat="43.36095" lon="5.87452">
        <ele>502</ele>
        <time>2025-02-19T09:17:49.000Z</time>
      </trkpt>
      <trkpt lat="43.36087" lon="5.87421">
        <ele>503</ele>
        <time>2025-02-19T09:18:10.000Z</time>
      </trkpt>
      <trkpt lat="43.36077" lon="5.87393">
        <ele>503</ele>
        <time>2025-02-19T09:18:31.000Z</time>
      </trkpt>
      <trkpt lat="43.36067" lon="5.87365">
        <ele>504</ele>
        <time>2025-02-19T09:18:49.000Z</time>
      </trkpt>
      <trkpt lat="43.3606" lon="5.87336">
        <ele>504</ele>
        <time>2025-02-19T09:19:07.000Z</time>
      </trkpt>
      <trkpt lat="43.36051" lon="5.87306">
        <ele>504</ele>
        <time>2025-02-19T09:19:28.000Z</time>
      </trkpt>
      <trkpt lat="43.36043" lon="5.87274">
        <ele>503</ele>
        <time>2025-02-19T09:19:52.000Z</time>
      </trkpt>
      <trkpt lat="43.36034" lon="5.87243">
        <ele>503</ele>
        <time>2025-02-19T09:20:13.000Z</time>
      </trkpt>
      <trkpt lat="43.36027" lon="5.87212">
        <ele>504</ele>
        <time>2025-02-19T09:20:34.000Z</time>
      </trkpt>
      <trkpt lat="43.36017" lon="5.87183">
        <ele>505</ele>
        <time>2025-02-19T09:20:55.000Z</time>
      </trkpt>
      <trkpt lat="43.36009" lon="5.87152">
        <ele>505</ele>
        <time>2025-02-19T09:21:16.000Z</time>
      </trkpt>
      <trkpt lat="43.36005" lon="5.8712">
        <ele>505</ele>
        <time>2025-02-19T09:21:38.000Z</time>
      </trkpt>
      <trkpt lat="43.36007" lon="5.8709">
        <ele>504</ele>
        <time>2025-02-19T09:22:17.000Z</time>
      </trkpt>
      <trkpt lat="43.3602" lon="5.87067">
        <ele>500</ele>
        <time>2025-02-19T09:24:38.000Z</time>
      </trkpt>
      <trkpt lat="43.36023" lon="5.87037">
        <ele>497</ele>
        <time>2025-02-19T09:25:20.000Z</time>
      </trkpt>
      <trkpt lat="43.36031" lon="5.87007">
        <ele>493</ele>
        <time>2025-02-19T09:26:02.000Z</time>
      </trkpt>
      <trkpt lat="43.36047" lon="5.86987">
        <ele>490</ele>
        <time>2025-02-19T09:26:35.000Z</time>
      </trkpt>
      <trkpt lat="43.36067" lon="5.8697">
        <ele>487</ele>
        <time>2025-02-19T09:26:59.000Z</time>
      </trkpt>
      <trkpt lat="43.36088" lon="5.86953">
        <ele>485</ele>
        <time>2025-02-19T09:27:20.000Z</time>
      </trkpt>
      <trkpt lat="43.36108" lon="5.86935">
        <ele>483</ele>
        <time>2025-02-19T09:27:44.000Z</time>
      </trkpt>
      <trkpt lat="43.36129" lon="5.86916">
        <ele>482</ele>
        <time>2025-02-19T09:28:05.000Z</time>
      </trkpt>
      <trkpt lat="43.36148" lon="5.86897">
        <ele>481</ele>
        <time>2025-02-19T09:28:32.000Z</time>
      </trkpt>
      <trkpt lat="43.36165" lon="5.86875">
        <ele>479</ele>
        <time>2025-02-19T09:28:56.000Z</time>
      </trkpt>
      <trkpt lat="43.36177" lon="5.8685">
        <ele>479</ele>
        <time>2025-02-19T09:30:32.000Z</time>
      </trkpt>
      <trkpt lat="43.36177" lon="5.8682">
        <ele>477</ele>
        <time>2025-02-19T09:31:05.000Z</time>
      </trkpt>
      <trkpt lat="43.3616" lon="5.86798">
        <ele>476</ele>
        <time>2025-02-19T09:31:39.000Z</time>
      </trkpt>
      <trkpt lat="43.36144" lon="5.86775">
        <ele>475</ele>
        <time>2025-02-19T09:32:00.000Z</time>
      </trkpt>
      <trkpt lat="43.36127" lon="5.86751">
        <ele>474</ele>
        <time>2025-02-19T09:32:21.000Z</time>
      </trkpt>
      <trkpt lat="43.3611" lon="5.86726">
        <ele>473</ele>
        <time>2025-02-19T09:32:45.000Z</time>
      </trkpt>
      <trkpt lat="43.36094" lon="5.86704">
        <ele>472</ele>
        <time>2025-02-19T09:33:06.000Z</time>
      </trkpt>
      <trkpt lat="43.36076" lon="5.86683">
        <ele>472</ele>
        <time>2025-02-19T09:33:30.000Z</time>
      </trkpt>
      <trkpt lat="43.36061" lon="5.86658">
        <ele>471</ele>
        <time>2025-02-19T09:33:51.000Z</time>
      </trkpt>
      <trkpt lat="43.36046" lon="5.86633">
        <ele>471</ele>
        <time>2025-02-19T09:34:18.000Z</time>
      </trkpt>
      <trkpt lat="43.36036" lon="5.86604">
        <ele>471</ele>
        <time>2025-02-19T09:34:36.000Z</time>
      </trkpt>
      <trkpt lat="43.36029" lon="5.86574">
        <ele>472</ele>
        <time>2025-02-19T09:34:57.000Z</time>
      </trkpt>
      <trkpt lat="43.36022" lon="5.86541">
        <ele>473</ele>
        <time>2025-02-19T09:35:21.000Z</time>
      </trkpt>
      <trkpt lat="43.36017" lon="5.8651">
        <ele>475</ele>
        <time>2025-02-19T09:35:36.000Z</time>
      </trkpt>
      <trkpt lat="43.3601" lon="5.86479">
        <ele>477</ele>
        <time>2025-02-19T09:35:57.000Z</time>
      </trkpt>
      <trkpt lat="43.36008" lon="5.86447">
        <ele>479</ele>
        <time>2025-02-19T09:36:21.000Z</time>
      </trkpt>
      <trkpt lat="43.36006" lon="5.86414">
        <ele>482</ele>
        <time>2025-02-19T09:36:48.000Z</time>
      </trkpt>
      <trkpt lat="43.35999" lon="5.86383">
        <ele>485</ele>
        <time>2025-02-19T09:37:18.000Z</time>
      </trkpt>
      <trkpt lat="43.3599" lon="5.86353">
        <ele>488</ele>
        <time>2025-02-19T09:37:51.000Z</time>
      </trkpt>
      <trkpt lat="43.35977" lon="5.86324">
        <ele>489</ele>
        <time>2025-02-19T09:38:18.000Z</time>
      </trkpt>
      <trkpt lat="43.35967" lon="5.86305">
        <ele>490</ele>
        <time>2025-02-19T09:38:51.000Z</time>
      </trkpt>
      <trkpt lat="43.35979" lon="5.86324">
        <ele>490</ele>
        <time>2025-02-19T09:48:18.000Z</time>
      </trkpt>
      <trkpt lat="43.3599" lon="5.86352">
        <ele>489</ele>
        <time>2025-02-19T09:48:45.000Z</time>
      </trkpt>
      <trkpt lat="43.35999" lon="5.8638">
        <ele>489</ele>
        <time>2025-02-19T09:49:18.000Z</time>
      </trkpt>
      <trkpt lat="43.36004" lon="5.8641">
        <ele>489</ele>
        <time>2025-02-19T09:50:06.000Z</time>
      </trkpt>
      <trkpt lat="43.36007" lon="5.8644">
        <ele>487</ele>
        <time>2025-02-19T09:50:42.000Z</time>
      </trkpt>
      <trkpt lat="43.36011" lon="5.86472">
        <ele>486</ele>
        <time>2025-02-19T09:51:06.000Z</time>
      </trkpt>
      <trkpt lat="43.36018" lon="5.86504">
        <ele>484</ele>
        <time>2025-02-19T09:51:27.000Z</time>
      </trkpt>
      <trkpt lat="43.36023" lon="5.86536">
        <ele>482</ele>
        <time>2025-02-19T09:51:48.000Z</time>
      </trkpt>
      <trkpt lat="43.3603" lon="5.86567">
        <ele>482</ele>
        <time>2025-02-19T09:52:09.000Z</time>
      </trkpt>
      <trkpt lat="43.36037" lon="5.86598">
        <ele>482</ele>
        <time>2025-02-19T09:52:30.000Z</time>
      </trkpt>
      <trkpt lat="43.36046" lon="5.86628">
        <ele>483</ele>
        <time>2025-02-19T09:52:51.000Z</time>
      </trkpt>
      <trkpt lat="43.36058" lon="5.8665">
        <ele>484</ele>
        <time>2025-02-19T09:53:09.000Z</time>
      </trkpt>
      <trkpt lat="43.36072" lon="5.86633">
        <ele>486</ele>
        <time>2025-02-19T09:54:03.000Z</time>
      </trkpt>
      <trkpt lat="43.36076" lon="5.86601">
        <ele>488</ele>
        <time>2025-02-19T09:54:27.000Z</time>
      </trkpt>
      <trkpt lat="43.36082" lon="5.8657">
        <ele>490</ele>
        <time>2025-02-19T09:54:48.000Z</time>
      </trkpt>
      <trkpt lat="43.36089" lon="5.86539">
        <ele>493</ele>
        <time>2025-02-19T09:55:09.000Z</time>
      </trkpt>
      <trkpt lat="43.36095" lon="5.86509">
        <ele>496</ele>
        <time>2025-02-19T09:55:30.000Z</time>
      </trkpt>
      <trkpt lat="43.36103" lon="5.86479">
        <ele>498</ele>
        <time>2025-02-19T09:55:51.000Z</time>
      </trkpt>
      <trkpt lat="43.36112" lon="5.8645">
        <ele>501</ele>
        <time>2025-02-19T09:56:12.000Z</time>
      </trkpt>
      <trkpt lat="43.36121" lon="5.8642">
        <ele>504</ele>
        <time>2025-02-19T09:56:39.000Z</time>
      </trkpt>
      <trkpt lat="43.36121" lon="5.86387">
        <ele>507</ele>
        <time>2025-02-19T09:57:03.000Z</time>
      </trkpt>
      <trkpt lat="43.36123" lon="5.86355">
        <ele>510</ele>
        <time>2025-02-19T09:57:27.000Z</time>
      </trkpt>
      <trkpt lat="43.36139" lon="5.8633">
        <ele>512</ele>
        <time>2025-02-19T09:57:51.000Z</time>
      </trkpt>
      <trkpt lat="43.36154" lon="5.86305">
        <ele>514</ele>
        <time>2025-02-19T09:58:12.000Z</time>
      </trkpt>
      <trkpt lat="43.36166" lon="5.86276">
        <ele>516</ele>
        <time>2025-02-19T09:58:33.000Z</time>
      </trkpt>
      <trkpt lat="43.36173" lon="5.86246">
        <ele>518</ele>
        <time>2025-02-19T09:58:54.000Z</time>
      </trkpt>
      <trkpt lat="43.36175" lon="5.86215">
        <ele>521</ele>
        <time>2025-02-19T09:59:21.000Z</time>
      </trkpt>
      <trkpt lat="43.36185" lon="5.86185">
        <ele>523</ele>
        <time>2025-02-19T09:59:45.000Z</time>
      </trkpt>
      <trkpt lat="43.36194" lon="5.86157">
        <ele>526</ele>
        <time>2025-02-19T10:00:06.000Z</time>
      </trkpt>
      <trkpt lat="43.36194" lon="5.86124">
        <ele>528</ele>
        <time>2025-02-19T10:00:30.000Z</time>
      </trkpt>
      <trkpt lat="43.36197" lon="5.86092">
        <ele>530</ele>
        <time>2025-02-19T10:00:54.000Z</time>
      </trkpt>
      <trkpt lat="43.36205" lon="5.86063">
        <ele>532</ele>
        <time>2025-02-19T10:01:12.000Z</time>
      </trkpt>
      <trkpt lat="43.36216" lon="5.86036">
        <ele>533</ele>
        <time>2025-02-19T10:01:33.000Z</time>
      </trkpt>
      <trkpt lat="43.36227" lon="5.86008">
        <ele>535</ele>
        <time>2025-02-19T10:01:57.000Z</time>
      </trkpt>
      <trkpt lat="43.3624" lon="5.85981">
        <ele>537</ele>
        <time>2025-02-19T10:02:18.000Z</time>
      </trkpt>
      <trkpt lat="43.36251" lon="5.85953">
        <ele>538</ele>
        <time>2025-02-19T10:06:56.000Z</time>
      </trkpt>
      <trkpt lat="43.36265" lon="5.85925">
        <ele>540</ele>
        <time>2025-02-19T10:07:20.000Z</time>
      </trkpt>
      <trkpt lat="43.3628" lon="5.859">
        <ele>542</ele>
        <time>2025-02-19T10:07:44.000Z</time>
      </trkpt>
      <trkpt lat="43.36301" lon="5.85888">
        <ele>543</ele>
        <time>2025-02-19T10:08:14.000Z</time>
      </trkpt>
      <trkpt lat="43.36324" lon="5.8588">
        <ele>544</ele>
        <time>2025-02-19T10:08:41.000Z</time>
      </trkpt>
      <trkpt lat="43.36344" lon="5.85865">
        <ele>545</ele>
        <time>2025-02-19T10:09:05.000Z</time>
      </trkpt>
      <trkpt lat="43.36368" lon="5.85858">
        <ele>546</ele>
        <time>2025-02-19T10:09:29.000Z</time>
      </trkpt>
      <trkpt lat="43.36391" lon="5.85853">
        <ele>546</ele>
        <time>2025-02-19T10:09:53.000Z</time>
      </trkpt>
      <trkpt lat="43.36416" lon="5.8585">
        <ele>547</ele>
        <time>2025-02-19T10:10:14.000Z</time>
      </trkpt>
      <trkpt lat="43.36439" lon="5.85853">
        <ele>547</ele>
        <time>2025-02-19T10:10:32.000Z</time>
      </trkpt>
      <trkpt lat="43.36461" lon="5.85847">
        <ele>549</ele>
        <time>2025-02-19T10:10:56.000Z</time>
      </trkpt>
      <trkpt lat="43.36479" lon="5.85828">
        <ele>551</ele>
        <time>2025-02-19T10:11:14.000Z</time>
      </trkpt>
      <trkpt lat="43.36482" lon="5.85796">
        <ele>553</ele>
        <time>2025-02-19T10:11:35.000Z</time>
      </trkpt>
      <trkpt lat="43.36477" lon="5.85764">
        <ele>555</ele>
        <time>2025-02-19T10:11:56.000Z</time>
      </trkpt>
      <trkpt lat="43.3647" lon="5.85743">
        <ele>557</ele>
        <time>2025-02-19T10:12:14.000Z</time>
      </trkpt>
      <trkpt lat="43.36476" lon="5.85765">
        <ele>557</ele>
        <time>2025-02-19T10:12:56.000Z</time>
      </trkpt>
      <trkpt lat="43.36485" lon="5.85794">
        <ele>558</ele>
        <time>2025-02-19T10:13:23.000Z</time>
      </trkpt>
      <trkpt lat="43.36504" lon="5.85801">
        <ele>560</ele>
        <time>2025-02-19T10:14:23.000Z</time>
      </trkpt>
      <trkpt lat="43.36519" lon="5.8578">
        <ele>562</ele>
        <time>2025-02-19T10:15:05.000Z</time>
      </trkpt>
      <trkpt lat="43.36532" lon="5.85754">
        <ele>564</ele>
        <time>2025-02-19T10:15:41.000Z</time>
      </trkpt>
      <trkpt lat="43.3654" lon="5.85727">
        <ele>566</ele>
        <time>2025-02-19T10:16:11.000Z</time>
      </trkpt>
      <trkpt lat="43.36556" lon="5.85703">
        <ele>569</ele>
        <time>2025-02-19T10:16:47.000Z</time>
      </trkpt>
      <trkpt lat="43.36564" lon="5.85674">
        <ele>572</ele>
        <time>2025-02-19T10:17:23.000Z</time>
      </trkpt>
      <trkpt lat="43.36558" lon="5.85646">
        <ele>575</ele>
        <time>2025-02-19T10:17:50.000Z</time>
      </trkpt>
      <trkpt lat="43.36555" lon="5.85614">
        <ele>577</ele>
        <time>2025-02-19T10:18:26.000Z</time>
      </trkpt>
      <trkpt lat="43.36545" lon="5.85586">
        <ele>580</ele>
        <time>2025-02-19T10:19:38.000Z</time>
      </trkpt>
      <trkpt lat="43.36546" lon="5.85554">
        <ele>582</ele>
        <time>2025-02-19T10:20:05.000Z</time>
      </trkpt>
      <trkpt lat="43.36551" lon="5.85523">
        <ele>583</ele>
        <time>2025-02-19T10:20:26.000Z</time>
      </trkpt>
      <trkpt lat="43.36567" lon="5.85503">
        <ele>584</ele>
        <time>2025-02-19T10:20:50.000Z</time>
      </trkpt>
      <trkpt lat="43.3659" lon="5.85495">
        <ele>584</ele>
        <time>2025-02-19T10:21:17.000Z</time>
      </trkpt>
      <trkpt lat="43.36605" lon="5.85473">
        <ele>584</ele>
        <time>2025-02-19T10:21:41.000Z</time>
      </trkpt>
      <trkpt lat="43.36608" lon="5.85442">
        <ele>584</ele>
        <time>2025-02-19T10:22:05.000Z</time>
      </trkpt>
      <trkpt lat="43.36615" lon="5.85412">
        <ele>584</ele>
        <time>2025-02-19T10:22:32.000Z</time>
      </trkpt>
      <trkpt lat="43.36631" lon="5.85391">
        <ele>586</ele>
        <time>2025-02-19T10:23:02.000Z</time>
      </trkpt>
      <trkpt lat="43.3665" lon="5.85369">
        <ele>587</ele>
        <time>2025-02-19T10:23:26.000Z</time>
      </trkpt>
      <trkpt lat="43.36658" lon="5.8534">
        <ele>587</ele>
        <time>2025-02-19T10:23:50.000Z</time>
      </trkpt>
      <trkpt lat="43.36653" lon="5.85311">
        <ele>588</ele>
        <time>2025-02-19T10:24:26.000Z</time>
      </trkpt>
      <trkpt lat="43.36647" lon="5.85281">
        <ele>589</ele>
        <time>2025-02-19T10:25:05.000Z</time>
      </trkpt>
      <trkpt lat="43.36637" lon="5.85251">
        <ele>590</ele>
        <time>2025-02-19T10:25:32.000Z</time>
      </trkpt>
      <trkpt lat="43.36629" lon="5.8522">
        <ele>592</ele>
        <time>2025-02-19T10:25:53.000Z</time>
      </trkpt>
      <trkpt lat="43.36622" lon="5.85188">
        <ele>594</ele>
        <time>2025-02-19T10:26:17.000Z</time>
      </trkpt>
      <trkpt lat="43.36615" lon="5.85155">
        <ele>595</ele>
        <time>2025-02-19T10:26:41.000Z</time>
      </trkpt>
      <trkpt lat="43.36607" lon="5.85125">
        <ele>597</ele>
        <time>2025-02-19T10:27:02.000Z</time>
      </trkpt>
      <trkpt lat="43.366" lon="5.85095">
        <ele>599</ele>
        <time>2025-02-19T10:27:26.000Z</time>
      </trkpt>
      <trkpt lat="43.36588" lon="5.85066">
        <ele>601</ele>
        <time>2025-02-19T10:27:50.000Z</time>
      </trkpt>
      <trkpt lat="43.36578" lon="5.85039">
        <ele>603</ele>
        <time>2025-02-19T10:28:29.000Z</time>
      </trkpt>
      <trkpt lat="43.36558" lon="5.85037">
        <ele>605</ele>
        <time>2025-02-19T10:28:56.000Z</time>
      </trkpt>
      <trkpt lat="43.36536" lon="5.85046">
        <ele>606</ele>
        <time>2025-02-19T10:29:17.000Z</time>
      </trkpt>
      <trkpt lat="43.36514" lon="5.85057">
        <ele>607</ele>
        <time>2025-02-19T10:29:41.000Z</time>
      </trkpt>
      <trkpt lat="43.36492" lon="5.85066">
        <ele>608</ele>
        <time>2025-02-19T10:29:59.000Z</time>
      </trkpt>
      <trkpt lat="43.36471" lon="5.85076">
        <ele>608</ele>
        <time>2025-02-19T10:30:23.000Z</time>
      </trkpt>
      <trkpt lat="43.36448" lon="5.85085">
        <ele>609</ele>
        <time>2025-02-19T10:30:44.000Z</time>
      </trkpt>
      <trkpt lat="43.36424" lon="5.85089">
        <ele>610</ele>
        <time>2025-02-19T10:31:08.000Z</time>
      </trkpt>
      <trkpt lat="43.36401" lon="5.85088">
        <ele>610</ele>
        <time>2025-02-19T10:31:35.000Z</time>
      </trkpt>
      <trkpt lat="43.36378" lon="5.85091">
        <ele>610</ele>
        <time>2025-02-19T10:31:59.000Z</time>
      </trkpt>
      <trkpt lat="43.36359" lon="5.85106">
        <ele>609</ele>
        <time>2025-02-19T10:32:23.000Z</time>
      </trkpt>
      <trkpt lat="43.36352" lon="5.85137">
        <ele>608</ele>
        <time>2025-02-19T10:32:50.000Z</time>
      </trkpt>
      <trkpt lat="43.36351" lon="5.85172">
        <ele>607</ele>
        <time>2025-02-19T10:33:14.000Z</time>
      </trkpt>
      <trkpt lat="43.36353" lon="5.85205">
        <ele>606</ele>
        <time>2025-02-19T10:33:41.000Z</time>
      </trkpt>
      <trkpt lat="43.36351" lon="5.85236">
        <ele>604</ele>
        <time>2025-02-19T10:34:05.000Z</time>
      </trkpt>
      <trkpt lat="43.3635" lon="5.85267">
        <ele>603</ele>
        <time>2025-02-19T10:34:29.000Z</time>
      </trkpt>
      <trkpt lat="43.36348" lon="5.85297">
        <ele>601</ele>
        <time>2025-02-19T10:34:56.000Z</time>
      </trkpt>
      <trkpt lat="43.36355" lon="5.85327">
        <ele>599</ele>
        <time>2025-02-19T10:35:20.000Z</time>
      </trkpt>
      <trkpt lat="43.36367" lon="5.85354">
        <ele>598</ele>
        <time>2025-02-19T10:35:44.000Z</time>
      </trkpt>
      <trkpt lat="43.36373" lon="5.85376">
        <ele>597</ele>
        <time>2025-02-19T10:36:08.000Z</time>
      </trkpt>
      <trkpt lat="43.36367" lon="5.85353">
        <ele>597</ele>
        <time>2025-02-19T10:37:05.000Z</time>
      </trkpt>
      <trkpt lat="43.36356" lon="5.85326">
        <ele>597</ele>
        <time>2025-02-19T10:37:26.000Z</time>
      </trkpt>
      <trkpt lat="43.36349" lon="5.85297">
        <ele>597</ele>
        <time>2025-02-19T10:37:53.000Z</time>
      </trkpt>
      <trkpt lat="43.36349" lon="5.85266">
        <ele>598</ele>
        <time>2025-02-19T10:38:20.000Z</time>
      </trkpt>
      <trkpt lat="43.36352" lon="5.85233">
        <ele>599</ele>
        <time>2025-02-19T10:38:44.000Z</time>
      </trkpt>
      <trkpt lat="43.36354" lon="5.85202">
        <ele>600</ele>
        <time>2025-02-19T10:39:08.000Z</time>
      </trkpt>
      <trkpt lat="43.36352" lon="5.85172">
        <ele>601</ele>
        <time>2025-02-19T10:39:29.000Z</time>
      </trkpt>
      <trkpt lat="43.36352" lon="5.85141">
        <ele>602</ele>
        <time>2025-02-19T10:39:47.000Z</time>
      </trkpt>
      <trkpt lat="43.36344" lon="5.85115">
        <ele>603</ele>
        <time>2025-02-19T10:40:20.000Z</time>
      </trkpt>
      <trkpt lat="43.36323" lon="5.85112">
        <ele>603</ele>
        <time>2025-02-19T10:40:53.000Z</time>
      </trkpt>
      <trkpt lat="43.36299" lon="5.85111">
        <ele>603</ele>
        <time>2025-02-19T10:41:20.000Z</time>
      </trkpt>
      <trkpt lat="43.36276" lon="5.85103">
        <ele>603</ele>
        <time>2025-02-19T10:41:50.000Z</time>
      </trkpt>
      <trkpt lat="43.36252" lon="5.85095">
        <ele>603</ele>
        <time>2025-02-19T10:42:20.000Z</time>
      </trkpt>
      <trkpt lat="43.3623" lon="5.85084">
        <ele>602</ele>
        <time>2025-02-19T10:42:44.000Z</time>
      </trkpt>
      <trkpt lat="43.36209" lon="5.85067">
        <ele>601</ele>
        <time>2025-02-19T10:43:08.000Z</time>
      </trkpt>
      <trkpt lat="43.36188" lon="5.85051">
        <ele>600</ele>
        <time>2025-02-19T10:43:32.000Z</time>
      </trkpt>
      <trkpt lat="43.36167" lon="5.8504">
        <ele>599</ele>
        <time>2025-02-19T10:43:59.000Z</time>
      </trkpt>
      <trkpt lat="43.36145" lon="5.85033">
        <ele>598</ele>
        <time>2025-02-19T10:44:26.000Z</time>
      </trkpt>
      <trkpt lat="43.36123" lon="5.85028">
        <ele>597</ele>
        <time>2025-02-19T10:44:47.000Z</time>
      </trkpt>
      <trkpt lat="43.36099" lon="5.85025">
        <ele>596</ele>
        <time>2025-02-19T10:45:11.000Z</time>
      </trkpt>
      <trkpt lat="43.36076" lon="5.85025">
        <ele>595</ele>
        <time>2025-02-19T10:45:32.000Z</time>
      </trkpt>
      <trkpt lat="43.36053" lon="5.85023">
        <ele>593</ele>
        <time>2025-02-19T10:46:08.000Z</time>
      </trkpt>
      <trkpt lat="43.3603" lon="5.85023">
        <ele>592</ele>
        <time>2025-02-19T10:46:50.000Z</time>
      </trkpt>
      <trkpt lat="43.36008" lon="5.85024">
        <ele>591</ele>
        <time>2025-02-19T10:47:14.000Z</time>
      </trkpt>
      <trkpt lat="43.35988" lon="5.85013">
        <ele>590</ele>
        <time>2025-02-19T10:47:41.000Z</time>
      </trkpt>
      <trkpt lat="43.35968" lon="5.84997">
        <ele>589</ele>
        <time>2025-02-19T10:48:11.000Z</time>
      </trkpt>
      <trkpt lat="43.35948" lon="5.85006">
        <ele>588</ele>
        <time>2025-02-19T10:48:35.000Z</time>
      </trkpt>
      <trkpt lat="43.35936" lon="5.85031">
        <ele>588</ele>
        <time>2025-02-19T10:49:02.000Z</time>
      </trkpt>
      <trkpt lat="43.35917" lon="5.85047">
        <ele>587</ele>
        <time>2025-02-19T10:49:26.000Z</time>
      </trkpt>
      <trkpt lat="43.35896" lon="5.85044">
        <ele>588</ele>
        <time>2025-02-19T10:49:50.000Z</time>
      </trkpt>
      <trkpt lat="43.35881" lon="5.85021">
        <ele>589</ele>
        <time>2025-02-19T10:50:14.000Z</time>
      </trkpt>
      <trkpt lat="43.35865" lon="5.84996">
        <ele>590</ele>
        <time>2025-02-19T10:50:41.000Z</time>
      </trkpt>
      <trkpt lat="43.3585" lon="5.84972">
        <ele>592</ele>
        <time>2025-02-19T10:51:08.000Z</time>
      </trkpt>
      <trkpt lat="43.35836" lon="5.84946">
        <ele>595</ele>
        <time>2025-02-19T10:51:29.000Z</time>
      </trkpt>
      <trkpt lat="43.35824" lon="5.84919">
        <ele>596</ele>
        <time>2025-02-19T10:51:50.000Z</time>
      </trkpt>
      <trkpt lat="43.35807" lon="5.84899">
        <ele>596</ele>
        <time>2025-02-19T10:54:58.000Z</time>
      </trkpt>
      <trkpt lat="43.35787" lon="5.84907">
        <ele>596</ele>
        <time>2025-02-19T10:55:34.000Z</time>
      </trkpt>
      <trkpt lat="43.35778" lon="5.84935">
        <ele>596</ele>
        <time>2025-02-19T10:56:07.000Z</time>
      </trkpt>
      <trkpt lat="43.35772" lon="5.84962">
        <ele>599</ele>
        <time>2025-02-19T10:56:49.000Z</time>
      </trkpt>
      <trkpt lat="43.35752" lon="5.84964">
        <ele>602</ele>
        <time>2025-02-19T10:57:49.000Z</time>
      </trkpt>
      <trkpt lat="43.3573" lon="5.84968">
        <ele>607</ele>
        <time>2025-02-19T10:58:37.000Z</time>
      </trkpt>
      <trkpt lat="43.35711" lon="5.84985">
        <ele>612</ele>
        <time>2025-02-19T10:59:28.000Z</time>
      </trkpt>
      <trkpt lat="43.3569" lon="5.84998">
        <ele>617</ele>
        <time>2025-02-19T11:00:13.000Z</time>
      </trkpt>
      <trkpt lat="43.35673" lon="5.8502">
        <ele>622</ele>
        <time>2025-02-19T11:01:04.000Z</time>
      </trkpt>
      <trkpt lat="43.35655" lon="5.85039">
        <ele>628</ele>
        <time>2025-02-19T11:01:52.000Z</time>
      </trkpt>
      <trkpt lat="43.35634" lon="5.85046">
        <ele>634</ele>
        <time>2025-02-19T11:02:34.000Z</time>
      </trkpt>
      <trkpt lat="43.35612" lon="5.85059">
        <ele>639</ele>
        <time>2025-02-19T11:03:52.000Z</time>
      </trkpt>
      <trkpt lat="43.35595" lon="5.85078">
        <ele>645</ele>
        <time>2025-02-19T11:04:52.000Z</time>
      </trkpt>
      <trkpt lat="43.35575" lon="5.85093">
        <ele>650</ele>
        <time>2025-02-19T11:05:55.000Z</time>
      </trkpt>
      <trkpt lat="43.35553" lon="5.85096">
        <ele>655</ele>
        <time>2025-02-19T11:06:37.000Z</time>
      </trkpt>
      <trkpt lat="43.35533" lon="5.85085">
        <ele>659</ele>
        <time>2025-02-19T11:10:15.000Z</time>
      </trkpt>
      <trkpt lat="43.35512" lon="5.85071">
        <ele>663</ele>
        <time>2025-02-19T11:10:51.000Z</time>
      </trkpt>
      <trkpt lat="43.35491" lon="5.85053">
        <ele>667</ele>
        <time>2025-02-19T11:11:21.000Z</time>
      </trkpt>
      <trkpt lat="43.35471" lon="5.8504">
        <ele>669</ele>
        <time>2025-02-19T11:16:24.000Z</time>
      </trkpt>
      <trkpt lat="43.35451" lon="5.85024">
        <ele>672</ele>
        <time>2025-02-19T11:16:51.000Z</time>
      </trkpt>
      <trkpt lat="43.35434" lon="5.85005">
        <ele>674</ele>
        <time>2025-02-19T11:17:12.000Z</time>
      </trkpt>
      <trkpt lat="43.35417" lon="5.84982">
        <ele>676</ele>
        <time>2025-02-19T11:17:39.000Z</time>
      </trkpt>
      <trkpt lat="43.354" lon="5.8496">
        <ele>677</ele>
        <time>2025-02-19T11:18:00.000Z</time>
      </trkpt>
      <trkpt lat="43.35382" lon="5.84938">
        <ele>678</ele>
        <time>2025-02-19T11:18:24.000Z</time>
      </trkpt>
      <trkpt lat="43.35363" lon="5.84923">
        <ele>678</ele>
        <time>2025-02-19T11:18:51.000Z</time>
      </trkpt>
      <trkpt lat="43.35342" lon="5.84916">
        <ele>678</ele>
        <time>2025-02-19T11:19:30.000Z</time>
      </trkpt>
      <trkpt lat="43.35322" lon="5.84917">
        <ele>678</ele>
        <time>2025-02-19T11:20:36.000Z</time>
      </trkpt>
      <trkpt lat="43.35318" lon="5.84944">
        <ele>679</ele>
        <time>2025-02-19T11:21:06.000Z</time>
      </trkpt>
      <trkpt lat="43.35317" lon="5.84976">
        <ele>679</ele>
        <time>2025-02-19T11:21:39.000Z</time>
      </trkpt>
      <trkpt lat="43.35318" lon="5.85009">
        <ele>679</ele>
        <time>2025-02-19T11:22:00.000Z</time>
      </trkpt>
      <trkpt lat="43.35315" lon="5.85041">
        <ele>678</ele>
        <time>2025-02-19T11:22:21.000Z</time>
      </trkpt>
      <trkpt lat="43.35315" lon="5.85075">
        <ele>677</ele>
        <time>2025-02-19T11:22:45.000Z</time>
      </trkpt>
      <trkpt lat="43.35317" lon="5.85109">
        <ele>677</ele>
        <time>2025-02-19T11:23:09.000Z</time>
      </trkpt>
      <trkpt lat="43.35318" lon="5.8514">
        <ele>676</ele>
        <time>2025-02-19T11:23:27.000Z</time>
      </trkpt>
      <trkpt lat="43.3532" lon="5.85173">
        <ele>674</ele>
        <time>2025-02-19T11:23:48.000Z</time>
      </trkpt>
      <trkpt lat="43.3532" lon="5.85207">
        <ele>674</ele>
        <time>2025-02-19T11:24:15.000Z</time>
      </trkpt>
      <trkpt lat="43.35309" lon="5.85231">
        <ele>674</ele>
        <time>2025-02-19T11:24:48.000Z</time>
      </trkpt>
      <trkpt lat="43.35289" lon="5.85225">
        <ele>674</ele>
        <time>2025-02-19T11:25:15.000Z</time>
      </trkpt>
      <trkpt lat="43.35268" lon="5.85216">
        <ele>675</ele>
        <time>2025-02-19T11:25:36.000Z</time>
      </trkpt>
      <trkpt lat="43.35268" lon="5.85188">
        <ele>676</ele>
        <time>2025-02-19T11:26:18.000Z</time>
      </trkpt>
      <trkpt lat="43.35269" lon="5.85158">
        <ele>677</ele>
        <time>2025-02-19T11:26:57.000Z</time>
      </trkpt>
      <trkpt lat="43.35258" lon="5.85135">
        <ele>678</ele>
        <time>2025-02-19T11:27:36.000Z</time>
      </trkpt>
      <trkpt lat="43.35235" lon="5.85137">
        <ele>679</ele>
        <time>2025-02-19T11:28:12.000Z</time>
      </trkpt>
      <trkpt lat="43.35213" lon="5.85147">
        <ele>681</ele>
        <time>2025-02-19T11:28:33.000Z</time>
      </trkpt>
      <trkpt lat="43.35192" lon="5.85162">
        <ele>683</ele>
        <time>2025-02-19T11:28:54.000Z</time>
      </trkpt>
      <trkpt lat="43.3517" lon="5.85168">
        <ele>684</ele>
        <time>2025-02-19T11:29:12.000Z</time>
      </trkpt>
      <trkpt lat="43.35148" lon="5.85174">
        <ele>687</ele>
        <time>2025-02-19T11:35:21.000Z</time>
      </trkpt>
      <trkpt lat="43.35129" lon="5.85169">
        <ele>689</ele>
        <time>2025-02-19T12:06:30.000Z</time>
      </trkpt>
      <trkpt lat="43.35137" lon="5.85144">
        <ele>689</ele>
        <time>2025-02-19T12:07:21.000Z</time>
      </trkpt>
      <trkpt lat="43.35149" lon="5.85128">
        <ele>690</ele>
        <time>2025-02-19T12:09:15.000Z</time>
      </trkpt>
      <trkpt lat="43.35136" lon="5.85146">
        <ele>689</ele>
        <time>2025-02-19T12:12:23.000Z</time>
      </trkpt>
      <trkpt lat="43.35121" lon="5.8516">
        <ele>686</ele>
        <time>2025-02-19T12:12:53.000Z</time>
      </trkpt>
      <trkpt lat="43.35139" lon="5.85169">
        <ele>684</ele>
        <time>2025-02-19T12:13:32.000Z</time>
      </trkpt>
      <trkpt lat="43.35156" lon="5.85167">
        <ele>679</ele>
        <time>2025-02-19T12:14:47.000Z</time>
      </trkpt>
      <trkpt lat="43.35157" lon="5.85189">
        <ele>675</ele>
        <time>2025-02-19T12:19:53.000Z</time>
      </trkpt>
      <trkpt lat="43.35177" lon="5.85198">
        <ele>673</ele>
        <time>2025-02-19T12:22:29.000Z</time>
      </trkpt>
      <trkpt lat="43.352" lon="5.85192">
        <ele>670</ele>
        <time>2025-02-19T12:22:59.000Z</time>
      </trkpt>
      <trkpt lat="43.35222" lon="5.85199">
        <ele>669</ele>
        <time>2025-02-19T12:23:26.000Z</time>
      </trkpt>
      <trkpt lat="43.35245" lon="5.85209">
        <ele>668</ele>
        <time>2025-02-19T12:23:47.000Z</time>
      </trkpt>
      <trkpt lat="43.35269" lon="5.85216">
        <ele>668</ele>
        <time>2025-02-19T12:24:05.000Z</time>
      </trkpt>
      <trkpt lat="43.35292" lon="5.8522">
        <ele>667</ele>
        <time>2025-02-19T12:24:29.000Z</time>
      </trkpt>
      <trkpt lat="43.35313" lon="5.85233">
        <ele>666</ele>
        <time>2025-02-19T12:24:47.000Z</time>
      </trkpt>
      <trkpt lat="43.35336" lon="5.85241">
        <ele>664</ele>
        <time>2025-02-19T12:25:08.000Z</time>
      </trkpt>
      <trkpt lat="43.35354" lon="5.85236">
        <ele>663</ele>
        <time>2025-02-19T12:25:47.000Z</time>
      </trkpt>
      <trkpt lat="43.35354" lon="5.85264">
        <ele>662</ele>
        <time>2025-02-19T12:26:56.000Z</time>
      </trkpt>
      <trkpt lat="43.35354" lon="5.85298">
        <ele>662</ele>
        <time>2025-02-19T12:27:26.000Z</time>
      </trkpt>
      <trkpt lat="43.35356" lon="5.85331">
        <ele>661</ele>
        <time>2025-02-19T12:27:53.000Z</time>
      </trkpt>
      <trkpt lat="43.35366" lon="5.85361">
        <ele>660</ele>
        <time>2025-02-19T12:28:20.000Z</time>
      </trkpt>
      <trkpt lat="43.35381" lon="5.85382">
        <ele>658</ele>
        <time>2025-02-19T12:30:40.000Z</time>
      </trkpt>
      <trkpt lat="43.35379" lon="5.8541">
        <ele>658</ele>
        <time>2025-02-19T12:32:40.000Z</time>
      </trkpt>
      <trkpt lat="43.35384" lon="5.85442">
        <ele>657</ele>
        <time>2025-02-19T12:33:46.000Z</time>
      </trkpt>
      <trkpt lat="43.35387" lon="5.85473">
        <ele>656</ele>
        <time>2025-02-19T12:34:55.000Z</time>
      </trkpt>
      <trkpt lat="43.35386" lon="5.855">
        <ele>655</ele>
        <time>2025-02-19T12:35:49.000Z</time>
      </trkpt>
      <trkpt lat="43.35368" lon="5.85504">
        <ele>653</ele>
        <time>2025-02-19T12:37:37.000Z</time>
      </trkpt>
      <trkpt lat="43.35358" lon="5.85528">
        <ele>651</ele>
        <time>2025-02-19T12:38:04.000Z</time>
      </trkpt>
      <trkpt lat="43.35364" lon="5.85557">
        <ele>650</ele>
        <time>2025-02-19T12:38:25.000Z</time>
      </trkpt>
      <trkpt lat="43.35381" lon="5.85578">
        <ele>648</ele>
        <time>2025-02-19T12:38:55.000Z</time>
      </trkpt>
      <trkpt lat="43.35393" lon="5.85604">
        <ele>646</ele>
        <time>2025-02-19T12:39:19.000Z</time>
      </trkpt>
      <trkpt lat="43.35401" lon="5.85634">
        <ele>644</ele>
        <time>2025-02-19T12:39:43.000Z</time>
      </trkpt>
      <trkpt lat="43.35405" lon="5.85665">
        <ele>641</ele>
        <time>2025-02-19T12:40:07.000Z</time>
      </trkpt>
      <trkpt lat="43.35415" lon="5.85693">
        <ele>639</ele>
        <time>2025-02-19T12:40:31.000Z</time>
      </trkpt>
      <trkpt lat="43.35424" lon="5.85723">
        <ele>637</ele>
        <time>2025-02-19T12:40:55.000Z</time>
      </trkpt>
      <trkpt lat="43.35428" lon="5.85753">
        <ele>635</ele>
        <time>2025-02-19T12:41:28.000Z</time>
      </trkpt>
      <trkpt lat="43.35424" lon="5.85782">
        <ele>634</ele>
        <time>2025-02-19T12:41:55.000Z</time>
      </trkpt>
      <trkpt lat="43.35415" lon="5.85809">
        <ele>632</ele>
        <time>2025-02-19T12:42:19.000Z</time>
      </trkpt>
      <trkpt lat="43.35428" lon="5.85833">
        <ele>629</ele>
        <time>2025-02-19T12:42:43.000Z</time>
      </trkpt>
      <trkpt lat="43.35439" lon="5.85863">
        <ele>627</ele>
        <time>2025-02-19T12:43:04.000Z</time>
      </trkpt>
      <trkpt lat="43.35444" lon="5.85894">
        <ele>624</ele>
        <time>2025-02-19T12:43:25.000Z</time>
      </trkpt>
      <trkpt lat="43.35455" lon="5.85922">
        <ele>620</ele>
        <time>2025-02-19T12:43:49.000Z</time>
      </trkpt>
      <trkpt lat="43.35469" lon="5.85949">
        <ele>616</ele>
        <time>2025-02-19T12:44:16.000Z</time>
      </trkpt>
      <trkpt lat="43.35489" lon="5.85967">
        <ele>612</ele>
        <time>2025-02-19T12:44:46.000Z</time>
      </trkpt>
      <trkpt lat="43.35511" lon="5.85975">
        <ele>607</ele>
        <time>2025-02-19T12:45:19.000Z</time>
      </trkpt>
      <trkpt lat="43.35533" lon="5.85981">
        <ele>603</ele>
        <time>2025-02-19T12:45:52.000Z</time>
      </trkpt>
      <trkpt lat="43.35551" lon="5.86002">
        <ele>600</ele>
        <time>2025-02-19T12:46:22.000Z</time>
      </trkpt>
      <trkpt lat="43.35566" lon="5.86029">
        <ele>596</ele>
        <time>2025-02-19T12:46:49.000Z</time>
      </trkpt>
      <trkpt lat="43.35579" lon="5.86057">
        <ele>593</ele>
        <time>2025-02-19T12:47:10.000Z</time>
      </trkpt>
      <trkpt lat="43.3559" lon="5.86084">
        <ele>589</ele>
        <time>2025-02-19T12:47:31.000Z</time>
      </trkpt>
      <trkpt lat="43.35605" lon="5.8611">
        <ele>586</ele>
        <time>2025-02-19T12:47:55.000Z</time>
      </trkpt>
      <trkpt lat="43.3562" lon="5.86134">
        <ele>582</ele>
        <time>2025-02-19T12:48:16.000Z</time>
      </trkpt>
      <trkpt lat="43.35635" lon="5.8616">
        <ele>579</ele>
        <time>2025-02-19T12:48:37.000Z</time>
      </trkpt>
      <trkpt lat="43.35644" lon="5.8619">
        <ele>575</ele>
        <time>2025-02-19T12:49:01.000Z</time>
      </trkpt>
      <trkpt lat="43.35649" lon="5.86223">
        <ele>571</ele>
        <time>2025-02-19T12:49:22.000Z</time>
      </trkpt>
      <trkpt lat="43.35662" lon="5.8625">
        <ele>566</ele>
        <time>2025-02-19T12:49:46.000Z</time>
      </trkpt>
      <trkpt lat="43.35674" lon="5.86277">
        <ele>562</ele>
        <time>2025-02-19T12:50:07.000Z</time>
      </trkpt>
      <trkpt lat="43.35687" lon="5.86303">
        <ele>559</ele>
        <time>2025-02-19T12:50:43.000Z</time>
      </trkpt>
      <trkpt lat="43.35703" lon="5.86325">
        <ele>555</ele>
        <time>2025-02-19T12:51:16.000Z</time>
      </trkpt>
      <trkpt lat="43.35717" lon="5.8635">
        <ele>551</ele>
        <time>2025-02-19T12:51:37.000Z</time>
      </trkpt>
      <trkpt lat="43.3573" lon="5.86378">
        <ele>548</ele>
        <time>2025-02-19T12:52:01.000Z</time>
      </trkpt>
      <trkpt lat="43.35739" lon="5.86408">
        <ele>545</ele>
        <time>2025-02-19T12:52:28.000Z</time>
      </trkpt>
      <trkpt lat="43.35743" lon="5.86439">
        <ele>543</ele>
        <time>2025-02-19T12:52:49.000Z</time>
      </trkpt>
      <trkpt lat="43.3575" lon="5.86468">
        <ele>540</ele>
        <time>2025-02-19T12:53:13.000Z</time>
      </trkpt>
      <trkpt lat="43.35767" lon="5.86486">
        <ele>537</ele>
        <time>2025-02-19T12:53:40.000Z</time>
      </trkpt>
      <trkpt lat="43.35782" lon="5.86509">
        <ele>535</ele>
        <time>2025-02-19T12:54:04.000Z</time>
      </trkpt>
      <trkpt lat="43.35782" lon="5.86539">
        <ele>532</ele>
        <time>2025-02-19T12:54:31.000Z</time>
      </trkpt>
      <trkpt lat="43.35775" lon="5.86565">
        <ele>531</ele>
        <time>2025-02-19T12:55:05.000Z</time>
      </trkpt>
      <trkpt lat="43.35791" lon="5.86585">
        <ele>529</ele>
        <time>2025-02-19T12:55:32.000Z</time>
      </trkpt>
      <trkpt lat="43.35808" lon="5.86605">
        <ele>528</ele>
        <time>2025-02-19T12:55:56.000Z</time>
      </trkpt>
      <trkpt lat="43.3582" lon="5.86635">
        <ele>526</ele>
        <time>2025-02-19T12:56:23.000Z</time>
      </trkpt>
      <trkpt lat="43.35828" lon="5.86665">
        <ele>525</ele>
        <time>2025-02-19T12:56:47.000Z</time>
      </trkpt>
      <trkpt lat="43.35842" lon="5.86689">
        <ele>524</ele>
        <time>2025-02-19T12:57:08.000Z</time>
      </trkpt>
      <trkpt lat="43.35858" lon="5.86711">
        <ele>523</ele>
        <time>2025-02-19T12:57:29.000Z</time>
      </trkpt>
      <trkpt lat="43.35872" lon="5.86736">
        <ele>522</ele>
        <time>2025-02-19T12:57:53.000Z</time>
      </trkpt>
      <trkpt lat="43.35887" lon="5.86762">
        <ele>521</ele>
        <time>2025-02-19T12:58:17.000Z</time>
      </trkpt>
      <trkpt lat="43.35902" lon="5.86786">
        <ele>520</ele>
        <time>2025-02-19T12:58:35.000Z</time>
      </trkpt>
      <trkpt lat="43.35917" lon="5.86812">
        <ele>518</ele>
        <time>2025-02-19T12:58:59.000Z</time>
      </trkpt>
      <trkpt lat="43.35931" lon="5.86838">
        <ele>517</ele>
        <time>2025-02-19T12:59:17.000Z</time>
      </trkpt>
      <trkpt lat="43.35942" lon="5.86868">
        <ele>515</ele>
        <time>2025-02-19T12:59:38.000Z</time>
      </trkpt>
      <trkpt lat="43.35952" lon="5.86898">
        <ele>513</ele>
        <time>2025-02-19T12:59:59.000Z</time>
      </trkpt>
      <trkpt lat="43.35955" lon="5.86929">
        <ele>512</ele>
        <time>2025-02-19T13:00:17.000Z</time>
      </trkpt>
      <trkpt lat="43.35958" lon="5.86963">
        <ele>510</ele>
        <time>2025-02-19T13:00:38.000Z</time>
      </trkpt>
      <trkpt lat="43.35966" lon="5.86995">
        <ele>510</ele>
        <time>2025-02-19T13:01:02.000Z</time>
      </trkpt>
      <trkpt lat="43.35979" lon="5.87022">
        <ele>508</ele>
        <time>2025-02-19T13:01:23.000Z</time>
      </trkpt>
      <trkpt lat="43.35991" lon="5.87049">
        <ele>506</ele>
        <time>2025-02-19T13:01:44.000Z</time>
      </trkpt>
      <trkpt lat="43.36005" lon="5.8707">
        <ele>503</ele>
        <time>2025-02-19T13:02:26.000Z</time>
      </trkpt>
      <trkpt lat="43.36022" lon="5.87061">
        <ele>499</ele>
        <time>2025-02-19T13:03:02.000Z</time>
      </trkpt>
      <trkpt lat="43.36025" lon="5.87032">
        <ele>495</ele>
        <time>2025-02-19T13:03:44.000Z</time>
      </trkpt>
      <trkpt lat="43.36033" lon="5.87003">
        <ele>492</ele>
        <time>2025-02-19T13:04:20.000Z</time>
      </trkpt>
      <trkpt lat="43.36052" lon="5.86985">
        <ele>488</ele>
        <time>2025-02-19T13:04:55.000Z</time>
      </trkpt>
      <trkpt lat="43.36072" lon="5.86966">
        <ele>484</ele>
        <time>2025-02-19T13:05:19.000Z</time>
      </trkpt>
      <trkpt lat="43.36091" lon="5.8695">
        <ele>482</ele>
        <time>2025-02-19T13:05:40.000Z</time>
      </trkpt>
      <trkpt lat="43.36112" lon="5.86934">
        <ele>479</ele>
        <time>2025-02-19T13:06:07.000Z</time>
      </trkpt>
      <trkpt lat="43.36131" lon="5.86914">
        <ele>478</ele>
        <time>2025-02-19T13:06:37.000Z</time>
      </trkpt>
      <trkpt lat="43.36149" lon="5.869">
        <ele>477</ele>
        <time>2025-02-19T13:08:13.000Z</time>
      </trkpt>
      <trkpt lat="43.36169" lon="5.86908">
        <ele>477</ele>
        <time>2025-02-19T13:10:40.000Z</time>
      </trkpt>
      <trkpt lat="43.36188" lon="5.86895">
        <ele>477</ele>
        <time>2025-02-19T13:11:10.000Z</time>
      </trkpt>
      <trkpt lat="43.36203" lon="5.86877">
        <ele>476</ele>
        <time>2025-02-19T13:11:46.000Z</time>
      </trkpt>
      <trkpt lat="43.36219" lon="5.86895">
        <ele>476</ele>
        <time>2025-02-19T13:12:49.000Z</time>
      </trkpt>
      <trkpt lat="43.36237" lon="5.86916">
        <ele>475</ele>
        <time>2025-02-19T13:13:13.000Z</time>
      </trkpt>
      <trkpt lat="43.36254" lon="5.86938">
        <ele>474</ele>
        <time>2025-02-19T13:13:37.000Z</time>
      </trkpt>
      <trkpt lat="43.36268" lon="5.86967">
        <ele>474</ele>
        <time>2025-02-19T13:14:01.000Z</time>
      </trkpt>
      <trkpt lat="43.36283" lon="5.86993">
        <ele>474</ele>
        <time>2025-02-19T13:14:22.000Z</time>
      </trkpt>
      <trkpt lat="43.36303" lon="5.87014">
        <ele>474</ele>
        <time>2025-02-19T13:14:43.000Z</time>
      </trkpt>
      <trkpt lat="43.36323" lon="5.8703">
        <ele>474</ele>
        <time>2025-02-19T13:15:01.000Z</time>
      </trkpt>
      <trkpt lat="43.36344" lon="5.87044">
        <ele>473</ele>
        <time>2025-02-19T13:15:19.000Z</time>
      </trkpt>
      <trkpt lat="43.36367" lon="5.87059">
        <ele>472</ele>
        <time>2025-02-19T13:15:40.000Z</time>
      </trkpt>
      <trkpt lat="43.36389" lon="5.8707">
        <ele>472</ele>
        <time>2025-02-19T13:16:01.000Z</time>
      </trkpt>
      <trkpt lat="43.36408" lon="5.87085">
        <ele>471</ele>
        <time>2025-02-19T13:16:19.000Z</time>
      </trkpt>
      <trkpt lat="43.36427" lon="5.87104">
        <ele>471</ele>
        <time>2025-02-19T13:16:40.000Z</time>
      </trkpt>
      <trkpt lat="43.36448" lon="5.87122">
        <ele>470</ele>
        <time>2025-02-19T13:17:01.000Z</time>
      </trkpt>
      <trkpt lat="43.36467" lon="5.87141">
        <ele>469</ele>
        <time>2025-02-19T13:17:19.000Z</time>
      </trkpt>
      <trkpt lat="43.36484" lon="5.87164">
        <ele>469</ele>
        <time>2025-02-19T13:17:40.000Z</time>
      </trkpt>
      <trkpt lat="43.36499" lon="5.87188">
        <ele>468</ele>
        <time>2025-02-19T13:17:58.000Z</time>
      </trkpt>
      <trkpt lat="43.36513" lon="5.87218">
        <ele>468</ele>
        <time>2025-02-19T13:18:19.000Z</time>
      </trkpt>
      <trkpt lat="43.36531" lon="5.87237">
        <ele>467</ele>
        <time>2025-02-19T13:18:40.000Z</time>
      </trkpt>
      <trkpt lat="43.36547" lon="5.8726">
        <ele>465</ele>
        <time>2025-02-19T13:19:01.000Z</time>
      </trkpt>
      <trkpt lat="43.36555" lon="5.8729">
        <ele>464</ele>
        <time>2025-02-19T13:19:19.000Z</time>
      </trkpt>
      <trkpt lat="43.36564" lon="5.8732">
        <ele>463</ele>
        <time>2025-02-19T13:19:40.000Z</time>
      </trkpt>
      <trkpt lat="43.36574" lon="5.8735">
        <ele>462</ele>
        <time>2025-02-19T13:20:01.000Z</time>
      </trkpt>
      <trkpt lat="43.36587" lon="5.87379">
        <ele>461</ele>
        <time>2025-02-19T13:20:22.000Z</time>
      </trkpt>
      <trkpt lat="43.36601" lon="5.87405">
        <ele>461</ele>
        <time>2025-02-19T13:20:40.000Z</time>
      </trkpt>
      <trkpt lat="43.36611" lon="5.87437">
        <ele>461</ele>
        <time>2025-02-19T13:21:04.000Z</time>
      </trkpt>
      <trkpt lat="43.36613" lon="5.87471">
        <ele>461</ele>
        <time>2025-02-19T13:21:25.000Z</time>
      </trkpt>
      <trkpt lat="43.36619" lon="5.87504">
        <ele>461</ele>
        <time>2025-02-19T13:21:52.000Z</time>
      </trkpt>
      <trkpt lat="43.36626" lon="5.87538">
        <ele>461</ele>
        <time>2025-02-19T13:22:13.000Z</time>
      </trkpt>
      <trkpt lat="43.36629" lon="5.87572">
        <ele>459</ele>
        <time>2025-02-19T13:22:34.000Z</time>
      </trkpt>
      <trkpt lat="43.3663" lon="5.87604">
        <ele>458</ele>
        <time>2025-02-19T13:22:52.000Z</time>
      </trkpt>
      <trkpt lat="43.36633" lon="5.87637">
        <ele>456</ele>
        <time>2025-02-19T13:23:13.000Z</time>
      </trkpt>
      <trkpt lat="43.36636" lon="5.87668">
        <ele>455</ele>
        <time>2025-02-19T13:23:31.000Z</time>
      </trkpt>
      <trkpt lat="43.36631" lon="5.877">
        <ele>456</ele>
        <time>2025-02-19T13:23:55.000Z</time>
      </trkpt>
      <trkpt lat="43.36625" lon="5.8773">
        <ele>456</ele>
        <time>2025-02-19T13:24:10.000Z</time>
      </trkpt>
      <trkpt lat="43.36619" lon="5.87762">
        <ele>457</ele>
        <time>2025-02-19T13:24:31.000Z</time>
      </trkpt>
      <trkpt lat="43.36604" lon="5.87783">
        <ele>457</ele>
        <time>2025-02-19T13:25:07.000Z</time>
      </trkpt>
      <trkpt lat="43.3658" lon="5.87791">
        <ele>457</ele>
        <time>2025-02-19T13:25:31.000Z</time>
      </trkpt>
      <trkpt lat="43.36557" lon="5.878">
        <ele>457</ele>
        <time>2025-02-19T13:25:55.000Z</time>
      </trkpt>
      <trkpt lat="43.36537" lon="5.87816">
        <ele>456</ele>
        <time>2025-02-19T13:26:16.000Z</time>
      </trkpt>
      <trkpt lat="43.36523" lon="5.87843">
        <ele>456</ele>
        <time>2025-02-19T13:26:37.000Z</time>
      </trkpt>
      <trkpt lat="43.36506" lon="5.87865">
        <ele>456</ele>
        <time>2025-02-19T13:27:01.000Z</time>
      </trkpt>
      <trkpt lat="43.36488" lon="5.87887">
        <ele>456</ele>
        <time>2025-02-19T13:27:22.000Z</time>
      </trkpt>
      <trkpt lat="43.36475" lon="5.87911">
        <ele>455</ele>
        <time>2025-02-19T13:27:40.000Z</time>
      </trkpt>
      <trkpt lat="43.36475" lon="5.87943">
        <ele>455</ele>
        <time>2025-02-19T13:28:04.000Z</time>
      </trkpt>
      <trkpt lat="43.36476" lon="5.87975">
        <ele>455</ele>
        <time>2025-02-19T13:28:19.000Z</time>
      </trkpt>
      <trkpt lat="43.36482" lon="5.88009">
        <ele>455</ele>
        <time>2025-02-19T13:28:40.000Z</time>
      </trkpt>
      <trkpt lat="43.3649" lon="5.88041">
        <ele>456</ele>
        <time>2025-02-19T13:29:04.000Z</time>
      </trkpt>
      <trkpt lat="43.36498" lon="5.88071">
        <ele>456</ele>
        <time>2025-02-19T13:29:22.000Z</time>
      </trkpt>
      <trkpt lat="43.36506" lon="5.88104">
        <ele>457</ele>
        <time>2025-02-19T13:29:43.000Z</time>
      </trkpt>
      <trkpt lat="43.36517" lon="5.88133">
        <ele>456</ele>
        <time>2025-02-19T13:30:04.000Z</time>
      </trkpt>
      <trkpt lat="43.36529" lon="5.88164">
        <ele>456</ele>
        <time>2025-02-19T13:30:24.000Z</time>
      </trkpt>
      <trkpt lat="43.36542" lon="5.88192">
        <ele>456</ele>
        <time>2025-02-19T13:30:45.000Z</time>
      </trkpt>
      <trkpt lat="43.36545" lon="5.88224">
        <ele>455</ele>
        <time>2025-02-19T13:31:03.000Z</time>
      </trkpt>
      <trkpt lat="43.36539" lon="5.88254">
        <ele>456</ele>
        <time>2025-02-19T13:31:24.000Z</time>
      </trkpt>
      <trkpt lat="43.36543" lon="5.88283">
        <ele>456</ele>
        <time>2025-02-19T13:31:42.000Z</time>
      </trkpt>
      <trkpt lat="43.36543" lon="5.88316">
        <ele>457</ele>
        <time>2025-02-19T13:32:03.000Z</time>
      </trkpt>
      <trkpt lat="43.36541" lon="5.88348">
        <ele>457</ele>
        <time>2025-02-19T13:32:21.000Z</time>
      </trkpt>
      <trkpt lat="43.36544" lon="5.88382">
        <ele>457</ele>
        <time>2025-02-19T13:32:42.000Z</time>
      </trkpt>
      <trkpt lat="43.36551" lon="5.88412">
        <ele>458</ele>
        <time>2025-02-19T13:33:00.000Z</time>
      </trkpt>
      <trkpt lat="43.3656" lon="5.88441">
        <ele>459</ele>
        <time>2025-02-19T13:33:18.000Z</time>
      </trkpt>
      <trkpt lat="43.36571" lon="5.88472">
        <ele>458</ele>
        <time>2025-02-19T13:33:39.000Z</time>
      </trkpt>
      <trkpt lat="43.36584" lon="5.88498">
        <ele>458</ele>
        <time>2025-02-19T13:33:57.000Z</time>
      </trkpt>
      <trkpt lat="43.36598" lon="5.88523">
        <ele>458</ele>
        <time>2025-02-19T13:34:27.000Z</time>
      </trkpt>
      <trkpt lat="43.366" lon="5.88553">
        <ele>457</ele>
        <time>2025-02-19T13:34:45.000Z</time>
      </trkpt>
      <trkpt lat="43.36596" lon="5.88585">
        <ele>457</ele>
        <time>2025-02-19T13:35:30.000Z</time>
      </trkpt>
      <trkpt lat="43.36589" lon="5.88614">
        <ele>457</ele>
        <time>2025-02-19T13:35:51.000Z</time>
      </trkpt>
      <trkpt lat="43.36578" lon="5.88642">
        <ele>456</ele>
        <time>2025-02-19T13:36:12.000Z</time>
      </trkpt>
      <trkpt lat="43.36572" lon="5.88674">
        <ele>455</ele>
        <time>2025-02-19T13:36:42.000Z</time>
      </trkpt>
      <trkpt lat="43.36569" lon="5.88708">
        <ele>455</ele>
        <time>2025-02-19T13:37:07.000Z</time>
      </trkpt>
      <trkpt lat="43.36561" lon="5.88739">
        <ele>454</ele>
        <time>2025-02-19T13:37:25.000Z</time>
      </trkpt>
      <trkpt lat="43.36552" lon="5.88767">
        <ele>454</ele>
        <time>2025-02-19T13:37:43.000Z</time>
      </trkpt>
      <trkpt lat="43.36543" lon="5.88797">
        <ele>453</ele>
        <time>2025-02-19T13:38:04.000Z</time>
      </trkpt>
      <trkpt lat="43.36529" lon="5.88826">
        <ele>453</ele>
        <time>2025-02-19T13:38:25.000Z</time>
      </trkpt>
      <trkpt lat="43.36515" lon="5.88853">
        <ele>451</ele>
        <time>2025-02-19T13:38:49.000Z</time>
      </trkpt>
      <trkpt lat="43.36497" lon="5.88875">
        <ele>450</ele>
        <time>2025-02-19T13:39:10.000Z</time>
      </trkpt>
      <trkpt lat="43.36484" lon="5.88901">
        <ele>448</ele>
        <time>2025-02-19T13:39:28.000Z</time>
      </trkpt>
      <trkpt lat="43.36473" lon="5.88929">
        <ele>445</ele>
        <time>2025-02-19T13:39:49.000Z</time>
      </trkpt>
      <trkpt lat="43.36465" lon="5.88958">
        <ele>442</ele>
        <time>2025-02-19T13:40:10.000Z</time>
      </trkpt>
      <trkpt lat="43.36462" lon="5.88989">
        <ele>439</ele>
        <time>2025-02-19T13:40:28.000Z</time>
      </trkpt>
      <trkpt lat="43.36457" lon="5.89022">
        <ele>438</ele>
        <time>2025-02-19T13:40:55.000Z</time>
      </trkpt>
      <trkpt lat="43.36453" lon="5.89054">
        <ele>439</ele>
        <time>2025-02-19T13:41:13.000Z</time>
      </trkpt>
      <trkpt lat="43.36452" lon="5.89086">
        <ele>440</ele>
        <time>2025-02-19T13:41:31.000Z</time>
      </trkpt>
      <trkpt lat="43.36448" lon="5.89119">
        <ele>440</ele>
        <time>2025-02-19T13:41:49.000Z</time>
      </trkpt>
      <trkpt lat="43.36447" lon="5.8915">
        <ele>439</ele>
        <time>2025-02-19T13:49:15.000Z</time>
      </trkpt>
      <trkpt lat="43.36444" lon="5.8918">
        <ele>438</ele>
        <time>2025-02-19T13:49:33.000Z</time>
      </trkpt>
      <trkpt lat="43.3644" lon="5.89213">
        <ele>438</ele>
        <time>2025-02-19T13:49:54.000Z</time>
      </trkpt>
      <trkpt lat="43.3643" lon="5.89246">
        <ele>437</ele>
        <time>2025-02-19T13:50:15.000Z</time>
      </trkpt>
      <trkpt lat="43.36417" lon="5.89276">
        <ele>436</ele>
        <time>2025-02-19T13:50:36.000Z</time>
      </trkpt>
      <trkpt lat="43.36405" lon="5.89304">
        <ele>435</ele>
        <time>2025-02-19T13:50:57.000Z</time>
      </trkpt>
      <trkpt lat="43.36398" lon="5.89333">
        <ele>435</ele>
        <time>2025-02-19T13:51:15.000Z</time>
      </trkpt>
      <trkpt lat="43.36393" lon="5.89363">
        <ele>433</ele>
        <time>2025-02-19T13:51:33.000Z</time>
      </trkpt>
      <trkpt lat="43.36389" lon="5.89393">
        <ele>432</ele>
        <time>2025-02-19T13:51:51.000Z</time>
      </trkpt>
      <trkpt lat="43.36385" lon="5.89423">
        <ele>431</ele>
        <time>2025-02-19T13:52:09.000Z</time>
      </trkpt>
      <trkpt lat="43.36382" lon="5.89455">
        <ele>430</ele>
        <time>2025-02-19T13:52:27.000Z</time>
      </trkpt>
      <trkpt lat="43.36376" lon="5.89486">
        <ele>429</ele>
        <time>2025-02-19T13:52:45.000Z</time>
      </trkpt>
      <trkpt lat="43.36375" lon="5.89521">
        <ele>429</ele>
        <time>2025-02-19T13:53:06.000Z</time>
      </trkpt>
      <trkpt lat="43.36374" lon="5.89556">
        <ele>428</ele>
        <time>2025-02-19T13:53:27.000Z</time>
      </trkpt>
      <trkpt lat="43.3637" lon="5.89587">
        <ele>428</ele>
        <time>2025-02-19T13:53:45.000Z</time>
      </trkpt>
      <trkpt lat="43.36365" lon="5.89619">
        <ele>428</ele>
        <time>2025-02-19T13:54:06.000Z</time>
      </trkpt>
      <trkpt lat="43.36363" lon="5.89652">
        <ele>427</ele>
        <time>2025-02-19T13:54:24.000Z</time>
      </trkpt>
      <trkpt lat="43.36362" lon="5.89687">
        <ele>426</ele>
        <time>2025-02-19T13:54:45.000Z</time>
      </trkpt>
      <trkpt lat="43.36362" lon="5.89721">
        <ele>426</ele>
        <time>2025-02-19T13:55:03.000Z</time>
      </trkpt>
      <trkpt lat="43.36359" lon="5.89753">
        <ele>426</ele>
        <time>2025-02-19T13:55:24.000Z</time>
      </trkpt>
      <trkpt lat="43.36358" lon="5.89785">
        <ele>425</ele>
        <time>2025-02-19T13:55:42.000Z</time>
      </trkpt>
      <trkpt lat="43.36362" lon="5.89817">
        <ele>424</ele>
        <time>2025-02-19T13:56:03.000Z</time>
      </trkpt>
      <trkpt lat="43.36365" lon="5.8985">
        <ele>423</ele>
        <time>2025-02-19T13:56:22.000Z</time>
      </trkpt>
      <trkpt lat="43.3637" lon="5.8988">
        <ele>423</ele>
        <time>2025-02-19T13:56:40.000Z</time>
      </trkpt>
      <trkpt lat="43.36375" lon="5.89911">
        <ele>423</ele>
        <time>2025-02-19T13:56:58.000Z</time>
      </trkpt>
      <trkpt lat="43.3638" lon="5.89941">
        <ele>422</ele>
        <time>2025-02-19T13:57:19.000Z</time>
      </trkpt>
      <trkpt lat="43.36385" lon="5.89973">
        <ele>422</ele>
        <time>2025-02-19T13:57:40.000Z</time>
      </trkpt>
      <trkpt lat="43.36397" lon="5.90001">
        <ele>421</ele>
        <time>2025-02-19T13:58:01.000Z</time>
      </trkpt>
      <trkpt lat="43.36406" lon="5.90032">
        <ele>420</ele>
        <time>2025-02-19T13:58:22.000Z</time>
      </trkpt>
      <trkpt lat="43.36407" lon="5.90064">
        <ele>420</ele>
        <time>2025-02-19T13:58:40.000Z</time>
      </trkpt>
      <trkpt lat="43.36405" lon="5.90097">
        <ele>420</ele>
        <time>2025-02-19T13:58:58.000Z</time>
      </trkpt>
      <trkpt lat="43.36403" lon="5.90129">
        <ele>420</ele>
        <time>2025-02-19T13:59:19.000Z</time>
      </trkpt>
      <trkpt lat="43.36404" lon="5.90163">
        <ele>420</ele>
        <time>2025-02-19T13:59:40.000Z</time>
      </trkpt>
      <trkpt lat="43.36401" lon="5.90193">
        <ele>420</ele>
        <time>2025-02-19T13:59:58.000Z</time>
      </trkpt>
      <trkpt lat="43.36398" lon="5.90226">
        <ele>420</ele>
        <time>2025-02-19T14:00:19.000Z</time>
      </trkpt>
      <trkpt lat="43.36392" lon="5.90258">
        <ele>420</ele>
        <time>2025-02-19T14:00:37.000Z</time>
      </trkpt>
      <trkpt lat="43.36384" lon="5.90289">
        <ele>420</ele>
        <time>2025-02-19T14:00:58.000Z</time>
      </trkpt>
      <trkpt lat="43.36381" lon="5.9032">
        <ele>419</ele>
        <time>2025-02-19T14:01:16.000Z</time>
      </trkpt>
      <trkpt lat="43.36379" lon="5.90351">
        <ele>419</ele>
        <time>2025-02-19T14:01:34.000Z</time>
      </trkpt>
      <trkpt lat="43.36374" lon="5.90386">
        <ele>418</ele>
        <time>2025-02-19T14:01:55.000Z</time>
      </trkpt>
      <trkpt lat="43.36373" lon="5.90417">
        <ele>418</ele>
        <time>2025-02-19T14:02:13.000Z</time>
      </trkpt>
      <trkpt lat="43.36381" lon="5.90446">
        <ele>417</ele>
        <time>2025-02-19T14:02:31.000Z</time>
      </trkpt>
      <trkpt lat="43.3639" lon="5.90476">
        <ele>417</ele>
        <time>2025-02-19T14:02:49.000Z</time>
      </trkpt>
      <trkpt lat="43.36396" lon="5.90507">
        <ele>416</ele>
        <time>2025-02-19T14:03:07.000Z</time>
      </trkpt>
      <trkpt lat="43.36393" lon="5.90536">
        <ele>416</ele>
        <time>2025-02-19T14:03:28.000Z</time>
      </trkpt>
      <trkpt lat="43.36377" lon="5.9056">
        <ele>416</ele>
        <time>2025-02-19T14:03:55.000Z</time>
      </trkpt>
      <trkpt lat="43.36365" lon="5.90589">
        <ele>415</ele>
        <time>2025-02-19T14:04:16.000Z</time>
      </trkpt>
      <trkpt lat="43.36355" lon="5.90619">
        <ele>415</ele>
        <time>2025-02-19T14:04:34.000Z</time>
      </trkpt>
      <trkpt lat="43.3635" lon="5.90646">
        <ele>414</ele>
        <time>2025-02-19T14:04:52.000Z</time>
      </trkpt>
      <trkpt lat="43.3633" lon="5.90648">
        <ele>414</ele>
        <time>2025-02-19T14:05:31.000Z</time>
      </trkpt>
      <trkpt lat="43.36311" lon="5.90634">
        <ele>414</ele>
        <time>2025-02-19T14:06:01.000Z</time>
      </trkpt>
      <trkpt lat="43.3629" lon="5.90621">
        <ele>413</ele>
        <time>2025-02-19T14:06:25.000Z</time>
      </trkpt>
      <trkpt lat="43.36271" lon="5.90606">
        <ele>414</ele>
        <time>2025-02-19T14:06:46.000Z</time>
      </trkpt>
      <trkpt lat="43.3625" lon="5.90593">
        <ele>415</ele>
        <time>2025-02-19T14:07:07.000Z</time>
      </trkpt>
      <trkpt lat="43.36228" lon="5.90582">
        <ele>417</ele>
        <time>2025-02-19T14:07:31.000Z</time>
      </trkpt>
      <trkpt lat="43.36207" lon="5.90569">
        <ele>419</ele>
        <time>2025-02-19T14:07:59.000Z</time>
      </trkpt>
      <trkpt lat="43.36199" lon="5.90543">
        <ele>421</ele>
        <time>2025-02-19T14:08:35.000Z</time>
      </trkpt>
      <trkpt lat="43.36194" lon="5.90519">
        <ele>422</ele>
        <time>2025-02-19T14:09:17.000Z</time>
      </trkpt>
      <trkpt lat="43.3618" lon="5.90536">
        <ele>422</ele>
        <time>2025-02-19T14:10:44.000Z</time>
      </trkpt>
      <trkpt lat="43.3617" lon="5.90566">
        <ele>422</ele>
        <time>2025-02-19T14:11:26.000Z</time>
      </trkpt>
      <trkpt lat="43.36169" lon="5.90595">
        <ele>422</ele>
        <time>2025-02-19T14:12:20.000Z</time>
      </trkpt>
      <trkpt lat="43.36183" lon="5.90616">
        <ele>422</ele>
        <time>2025-02-19T14:13:20.000Z</time>
      </trkpt>
      <trkpt lat="43.36182" lon="5.90646">
        <ele>423</ele>
        <time>2025-02-19T14:14:53.000Z</time>
      </trkpt>
      <trkpt lat="43.36176" lon="5.90677">
        <ele>423</ele>
        <time>2025-02-19T14:15:17.000Z</time>
      </trkpt>
      <trkpt lat="43.3617" lon="5.90711">
        <ele>423</ele>
        <time>2025-02-19T14:15:41.000Z</time>
      </trkpt>
      <trkpt lat="43.36162" lon="5.90743">
        <ele>423</ele>
        <time>2025-02-19T14:16:08.000Z</time>
      </trkpt>
      <trkpt lat="43.36159" lon="5.90774">
        <ele>422</ele>
        <time>2025-02-19T14:16:29.000Z</time>
      </trkpt>
      <trkpt lat="43.3616" lon="5.90807">
        <ele>422</ele>
        <time>2025-02-19T14:16:50.000Z</time>
      </trkpt>
      <trkpt lat="43.36163" lon="5.90839">
        <ele>421</ele>
        <time>2025-02-19T14:17:07.000Z</time>
      </trkpt>
      <trkpt lat="43.36164" lon="5.90871">
        <ele>422</ele>
        <time>2025-02-19T14:17:31.000Z</time>
      </trkpt>
      <trkpt lat="43.36167" lon="5.90903">
        <ele>422</ele>
        <time>2025-02-19T14:17:49.000Z</time>
      </trkpt>
      <trkpt lat="43.36174" lon="5.90936">
        <ele>423</ele>
        <time>2025-02-19T14:18:15.000Z</time>
      </trkpt>
      <trkpt lat="43.36178" lon="5.90967">
        <ele>424</ele>
        <time>2025-02-19T14:18:39.000Z</time>
      </trkpt>
      <trkpt lat="43.36186" lon="5.90998">
        <ele>424</ele>
        <time>2025-02-19T14:19:09.000Z</time>
      </trkpt>
      <trkpt lat="43.36201" lon="5.91023">
        <ele>425</ele>
        <time>2025-02-19T14:19:33.000Z</time>
      </trkpt>
      <trkpt lat="43.36215" lon="5.91049">
        <ele>425</ele>
        <time>2025-02-19T14:19:54.000Z</time>
      </trkpt>
      <trkpt lat="43.36227" lon="5.91076">
        <ele>426</ele>
        <time>2025-02-19T14:20:15.000Z</time>
      </trkpt>
      <trkpt lat="43.3624" lon="5.91104">
        <ele>426</ele>
        <time>2025-02-19T14:20:36.000Z</time>
      </trkpt>
      <trkpt lat="43.36251" lon="5.91134">
        <ele>427</ele>
        <time>2025-02-19T14:20:57.000Z</time>
      </trkpt>
      <trkpt lat="43.36252" lon="5.91165">
        <ele>427</ele>
        <time>2025-02-19T14:21:18.000Z</time>
      </trkpt>
      <trkpt lat="43.36249" lon="5.91196">
        <ele>427</ele>
        <time>2025-02-19T14:21:36.000Z</time>
      </trkpt>
      <trkpt lat="43.36238" lon="5.91225">
        <ele>427</ele>
        <time>2025-02-19T14:21:57.000Z</time>
      </trkpt>
      <trkpt lat="43.36225" lon="5.91251">
        <ele>426</ele>
        <time>2025-02-19T14:22:21.000Z</time>
      </trkpt>
      <trkpt lat="43.36209" lon="5.91273">
        <ele>426</ele>
        <time>2025-02-19T14:22:42.000Z</time>
      </trkpt>
      <trkpt lat="43.36195" lon="5.91299">
        <ele>425</ele>
        <time>2025-02-19T14:23:03.000Z</time>
      </trkpt>
      <trkpt lat="43.36179" lon="5.9132">
        <ele>424</ele>
        <time>2025-02-19T14:23:24.000Z</time>
      </trkpt>
      <trkpt lat="43.36157" lon="5.91328">
        <ele>424</ele>
        <time>2025-02-19T14:23:48.000Z</time>
      </trkpt>
      <trkpt lat="43.36133" lon="5.91336">
        <ele>424</ele>
        <time>2025-02-19T14:24:12.000Z</time>
      </trkpt>
      <trkpt lat="43.36117" lon="5.91357">
        <ele>424</ele>
        <time>2025-02-19T14:24:33.000Z</time>
      </trkpt>
      <trkpt lat="43.36099" lon="5.9138">
        <ele>422</ele>
        <time>2025-02-19T14:24:54.000Z</time>
      </trkpt>
      <trkpt lat="43.36082" lon="5.91404">
        <ele>422</ele>
        <time>2025-02-19T14:25:18.000Z</time>
      </trkpt>
      <trkpt lat="43.36069" lon="5.9143">
        <ele>423</ele>
        <time>2025-02-19T14:25:42.000Z</time>
      </trkpt>
    </trkseg>
  </trk>
</gpx>